createdAt,value
2022-12-25T00:00:56.213Z,129.80
2022-12-25T00:01:55.979Z,150.10
2022-12-25T00:02:56.182Z,127.90
2022-12-25T00:03:56.022Z,144.40
2022-12-25T00:04:55.859Z,127.10
2022-12-25T00:05:55.756Z,143.80
2022-12-25T00:06:55.706Z,129.40
2022-12-25T00:07:55.621Z,161.50
2022-12-25T00:08:55.569Z,152.40
2022-12-25T00:09:55.534Z,132.10
2022-12-25T00:10:55.468Z,116.70
2022-12-25T00:11:55.386Z,128.90
2022-12-25T00:13:16.293Z,131.20
2022-12-25T00:13:55.285Z,117.30
2022-12-25T00:14:55.153Z,122.90
2022-12-25T00:15:55.129Z,142.80
2022-12-25T00:16:55.057Z,136.90
2022-12-25T00:17:54.992Z,124.70
2022-12-25T00:18:54.944Z,135.50
2022-12-25T00:19:54.875Z,132.40
2022-12-25T00:20:54.826Z,130.70
2022-12-25T00:21:54.724Z,140.40
2022-12-25T00:22:54.670Z,117.00
2022-12-25T00:23:54.595Z,130.30
2022-12-25T00:24:54.536Z,118.10
2022-12-25T00:25:54.550Z,138.40
2022-12-25T00:26:54.425Z,132.80
2022-12-25T00:27:54.357Z,126.40
2022-12-25T00:28:54.295Z,137.90
2022-12-25T00:29:54.235Z,128.80
2022-12-25T00:31:15.261Z,128.60
2022-12-25T00:31:54.122Z,118.90
2022-12-25T00:32:54.042Z,119.90
2022-12-25T00:33:53.949Z,125.10
2022-12-25T00:34:53.889Z,133.50
2022-12-25T00:35:53.907Z,138.70
2022-12-25T00:36:53.798Z,120.00
2022-12-25T00:37:53.721Z,110.60
2022-12-25T00:38:53.631Z,129.80
2022-12-25T00:39:53.602Z,143.30
2022-12-25T00:40:53.519Z,140.70
2022-12-25T00:41:53.467Z,135.10
2022-12-25T00:42:53.550Z,114.30
2022-12-25T00:43:53.337Z,135.80
2022-12-25T00:44:53.248Z,131.50
2022-12-25T00:45:53.262Z,134.20
2022-12-25T00:46:53.200Z,132.70
2022-12-25T00:47:53.083Z,157.80
2022-12-25T00:49:14.009Z,120.10
2022-12-25T00:49:52.983Z,127.90
2022-12-25T00:50:52.895Z,121.00
2022-12-25T00:51:52.860Z,135.90
2022-12-25T00:52:52.793Z,113.60
2022-12-25T00:53:52.740Z,127.10
2022-12-25T00:54:52.665Z,134.80
2022-12-25T00:55:52.572Z,131.90
2022-12-25T00:56:52.553Z,128.50
2022-12-25T00:57:52.469Z,132.10
2022-12-25T00:58:52.388Z,140.00
2022-12-25T00:59:52.302Z,130.00
2022-12-25T01:00:52.332Z,119.50
2022-12-25T01:01:52.463Z,130.70
2022-12-25T01:02:52.389Z,132.00
2022-12-25T01:03:52.065Z,129.00
2022-12-25T01:04:52.015Z,118.20
2022-12-25T01:05:51.938Z,121.10
2022-12-25T01:08:01.097Z,128.70
2022-12-25T01:09:02.062Z,137.20
2022-12-25T01:10:02.029Z,128.00
2022-12-25T01:11:01.882Z,137.20
2022-12-25T01:12:01.879Z,129.60
2022-12-25T01:13:01.769Z,126.90
2022-12-25T01:14:01.777Z,130.40
2022-12-25T01:15:01.683Z,124.80
2022-12-25T01:16:01.636Z,142.00
2022-12-25T01:17:01.554Z,141.90
2022-12-25T01:18:05.787Z,128.80
2022-12-25T01:19:01.699Z,112.80
2022-12-25T01:20:01.379Z,117.60
2022-12-25T01:21:01.311Z,119.10
2022-12-25T01:22:01.230Z,117.00
2022-12-25T01:23:01.141Z,124.40
2022-12-25T01:24:01.157Z,131.80
2022-12-25T01:25:01.059Z,127.90
2022-12-25T01:26:00.973Z,145.20
2022-12-25T01:27:00.917Z,125.00
2022-12-25T01:28:00.797Z,128.60
2022-12-25T01:29:00.763Z,136.70
2022-12-25T01:30:00.697Z,116.80
2022-12-25T01:31:00.656Z,131.00
2022-12-25T01:32:00.600Z,121.80
2022-12-25T01:33:00.508Z,132.30
2022-12-25T01:34:00.425Z,138.00
2022-12-25T01:35:00.375Z,130.00
2022-12-25T01:36:00.310Z,142.30
2022-12-25T01:37:00.269Z,124.40
2022-12-25T01:38:00.244Z,118.90
2022-12-25T01:39:00.124Z,114.10
2022-12-25T01:40:00.058Z,127.30
2022-12-25T01:41:00.033Z,134.10
2022-12-25T01:41:59.940Z,108.90
2022-12-25T01:43:20.847Z,94.70
2022-12-25T01:43:59.808Z,109.70
2022-12-25T01:44:59.717Z,102.20
2022-12-25T01:45:59.773Z,110.60
2022-12-25T01:46:59.587Z,111.70
2022-12-25T01:47:59.592Z,115.60
2022-12-25T01:48:59.502Z,108.50
2022-12-25T01:49:59.423Z,102.10
2022-12-25T01:50:59.366Z,96.40
2022-12-25T01:51:59.307Z,107.00
2022-12-25T01:52:59.261Z,98.30
2022-12-25T01:53:59.148Z,107.50
2022-12-25T01:54:59.159Z,107.60
2022-12-25T01:55:59.072Z,109.50
2022-12-25T01:56:58.984Z,121.70
2022-12-25T01:57:58.917Z,107.40
2022-12-25T01:58:58.857Z,106.80
2022-12-25T01:59:58.853Z,97.60
2022-12-25T02:02:08.077Z,93.70
2022-12-25T02:03:08.956Z,89.90
2022-12-25T02:04:08.833Z,91.40
2022-12-25T02:05:08.765Z,108.10
2022-12-25T02:06:08.728Z,114.50
2022-12-25T02:07:08.659Z,102.40
2022-12-25T02:08:08.595Z,84.90
2022-12-25T02:09:08.503Z,105.40
2022-12-25T02:10:08.413Z,110.00
2022-12-25T02:11:08.380Z,110.90
2022-12-25T02:12:08.340Z,91.90
2022-12-25T02:13:08.258Z,107.30
2022-12-25T02:14:08.163Z,102.00
2022-12-25T02:15:08.165Z,107.70
2022-12-25T02:16:08.120Z,133.10
2022-12-25T02:17:08.073Z,97.80
2022-12-25T02:18:07.929Z,120.90
2022-12-25T02:19:28.851Z,104.60
2022-12-25T02:20:07.805Z,112.60
2022-12-25T02:21:07.715Z,98.80
2022-12-25T02:22:07.667Z,97.20
2022-12-25T02:23:07.628Z,113.80
2022-12-25T02:24:07.549Z,100.40
2022-12-25T02:25:07.540Z,104.10
2022-12-25T02:26:07.392Z,99.40
2022-12-25T02:27:07.328Z,96.20
2022-12-25T02:28:07.293Z,120.90
2022-12-25T02:29:07.262Z,106.40
2022-12-25T02:30:07.199Z,100.20
2022-12-25T02:31:07.139Z,98.40
2022-12-25T02:32:07.063Z,93.70
2022-12-25T02:33:06.977Z,104.30
2022-12-25T02:34:06.964Z,86.30
2022-12-25T02:35:06.848Z,97.60
2022-12-25T02:36:06.790Z,94.50
2022-12-25T02:37:06.747Z,102.60
2022-12-25T02:38:06.635Z,91.20
2022-12-25T02:39:06.603Z,85.50
2022-12-25T02:40:06.548Z,94.10
2022-12-25T02:41:06.474Z,99.70
2022-12-25T02:42:06.384Z,91.60
2022-12-25T02:43:06.405Z,94.00
2022-12-25T02:44:06.314Z,100.60
2022-12-25T02:45:06.211Z,100.60
2022-12-25T02:46:06.148Z,100.20
2022-12-25T02:47:06.122Z,104.40
2022-12-25T02:48:05.999Z,111.00
2022-12-25T02:49:05.954Z,94.00
2022-12-25T02:50:26.909Z,103.50
2022-12-25T02:51:05.830Z,100.90
2022-12-25T02:52:05.795Z,88.40
2022-12-25T02:53:05.709Z,84.30
2022-12-25T02:54:05.645Z,99.60
2022-12-25T02:55:05.590Z,85.80
2022-12-25T02:56:05.513Z,79.30
2022-12-25T02:57:05.483Z,67.90
2022-12-25T02:58:05.410Z,80.30
2022-12-25T02:59:05.356Z,74.90
2022-12-25T03:00:05.261Z,90.10
2022-12-25T03:01:05.279Z,72.80
2022-12-25T03:02:05.329Z,72.30
2022-12-25T03:03:05.080Z,78.60
2022-12-25T03:04:05.015Z,66.90
2022-12-25T03:05:04.971Z,78.90
2022-12-25T03:06:04.879Z,70.80
2022-12-25T03:07:04.832Z,81.60
2022-12-25T03:08:04.790Z,81.10
2022-12-25T03:09:04.714Z,79.50
2022-12-25T03:10:04.628Z,86.30
2022-12-25T03:11:04.583Z,68.10
2022-12-25T03:12:04.536Z,67.20
2022-12-25T03:13:04.467Z,74.90
2022-12-25T03:14:04.350Z,72.20
2022-12-25T03:15:04.351Z,59.40
2022-12-25T03:16:04.236Z,62.30
2022-12-25T03:17:04.249Z,67.60
2022-12-25T03:18:04.113Z,76.40
2022-12-25T03:19:04.089Z,89.30
2022-12-25T03:20:03.987Z,71.50
2022-12-25T03:21:03.951Z,60.20
2022-12-25T03:22:03.889Z,62.00
2022-12-25T03:23:03.822Z,75.80
2022-12-25T03:24:03.744Z,72.10
2022-12-25T03:25:03.691Z,71.50
2022-12-25T03:26:03.601Z,67.70
2022-12-25T03:27:03.568Z,76.90
2022-12-25T03:28:03.468Z,73.70
2022-12-25T03:29:03.444Z,76.90
2022-12-25T03:30:03.363Z,66.70
2022-12-25T03:31:24.316Z,65.60
2022-12-25T03:32:03.199Z,68.00
2022-12-25T03:33:13.536Z,68.40
2022-12-25T03:34:03.108Z,66.90
2022-12-25T03:35:03.028Z,76.20
2022-12-25T03:36:02.971Z,80.10
2022-12-25T03:37:02.925Z,86.70
2022-12-25T03:38:02.819Z,75.80
2022-12-25T03:39:02.834Z,72.60
2022-12-25T03:40:02.743Z,73.10
2022-12-25T03:41:02.688Z,76.20
2022-12-25T03:42:02.591Z,86.90
2022-12-25T03:43:02.578Z,68.60
2022-12-25T03:44:02.469Z,79.60
2022-12-25T03:45:02.423Z,83.40
2022-12-25T03:46:02.363Z,66.60
2022-12-25T03:47:02.305Z,77.50
2022-12-25T03:48:02.211Z,80.30
2022-12-25T03:51:20.585Z,72.80
2022-12-25T03:52:21.512Z,73.90
2022-12-25T03:53:21.434Z,71.40
2022-12-25T03:54:21.429Z,78.90
2022-12-25T03:55:21.351Z,68.60
2022-12-25T03:56:21.524Z,67.70
2022-12-25T03:57:21.206Z,83.10
2022-12-25T03:58:21.107Z,82.80
2022-12-25T03:59:23.801Z,76.80
2022-12-25T04:00:20.981Z,92.10
2022-12-25T04:01:21.048Z,69.70
2022-12-25T04:02:21.084Z,75.50
2022-12-25T04:03:20.898Z,83.20
2022-12-25T04:04:20.785Z,80.90
2022-12-25T04:05:20.726Z,90.60
2022-12-25T04:06:20.627Z,79.20
2022-12-25T04:07:20.589Z,81.70
2022-12-25T04:09:59.489Z,80.70
2022-12-25T04:11:00.502Z,75.30
2022-12-25T04:12:02.910Z,81.80
2022-12-25T04:13:00.338Z,80.30
2022-12-25T04:14:00.293Z,77.40
2022-12-25T04:15:00.207Z,72.10
2022-12-25T04:16:00.301Z,85.60
2022-12-25T04:17:00.127Z,73.90
2022-12-25T04:18:00.005Z,67.20
2022-12-25T04:18:59.943Z,92.20
2022-12-25T04:19:59.898Z,67.50
2022-12-25T04:20:59.817Z,74.30
2022-12-25T04:21:59.751Z,84.30
2022-12-25T04:22:59.687Z,93.10
2022-12-25T04:23:59.596Z,74.20
2022-12-25T04:24:59.531Z,73.10
2022-12-25T04:26:20.478Z,78.30
2022-12-25T04:26:59.463Z,79.60
2022-12-25T04:27:59.380Z,66.10
2022-12-25T04:28:59.335Z,66.20
2022-12-25T04:29:59.212Z,86.10
2022-12-25T04:30:59.205Z,79.40
2022-12-25T04:31:59.103Z,85.00
2022-12-25T04:32:59.044Z,83.90
2022-12-25T04:33:58.983Z,98.70
2022-12-25T04:34:58.945Z,76.90
2022-12-25T04:35:58.863Z,90.00
2022-12-25T04:36:58.775Z,77.10
2022-12-25T04:37:58.740Z,93.30
2022-12-25T04:38:58.700Z,87.10
2022-12-25T04:39:58.613Z,86.90
2022-12-25T04:40:58.549Z,93.60
2022-12-25T04:41:58.491Z,78.70
2022-12-25T04:42:58.418Z,87.10
2022-12-25T04:43:58.405Z,85.10
2022-12-25T04:44:58.308Z,77.40
2022-12-25T04:45:58.231Z,88.40
2022-12-25T04:46:58.185Z,98.50
2022-12-25T04:47:58.101Z,81.70
2022-12-25T04:48:58.004Z,88.90
2022-12-25T04:49:57.993Z,91.10
2022-12-25T04:50:57.881Z,84.70
2022-12-25T04:51:57.838Z,108.20
2022-12-25T04:52:57.790Z,81.90
2022-12-25T04:53:57.718Z,83.50
2022-12-25T04:54:58.468Z,81.30
2022-12-25T04:55:57.598Z,80.30
2022-12-25T04:56:57.495Z,87.60
2022-12-25T04:57:57.493Z,71.50
2022-12-25T04:58:57.404Z,75.90
2022-12-25T04:59:57.344Z,86.30
2022-12-25T05:00:57.279Z,96.10
2022-12-25T05:02:18.425Z,87.60
2022-12-25T05:02:57.360Z,101.80
2022-12-25T05:03:57.141Z,87.40
2022-12-25T05:04:57.017Z,85.50
2022-12-25T05:05:56.973Z,83.00
2022-12-25T05:06:56.886Z,77.80
2022-12-25T05:07:56.828Z,91.10
2022-12-25T05:08:56.763Z,79.60
2022-12-25T05:09:56.731Z,78.20
2022-12-25T05:10:56.601Z,89.10
2022-12-25T05:11:56.567Z,86.50
2022-12-25T05:12:56.505Z,100.20
2022-12-25T05:13:56.431Z,89.00
2022-12-25T05:14:56.348Z,89.70
2022-12-25T05:15:56.380Z,81.70
2022-12-25T05:16:56.275Z,91.70
2022-12-25T05:17:56.187Z,88.90
2022-12-25T05:18:56.114Z,96.40
2022-12-25T05:19:56.076Z,80.80
2022-12-25T05:20:56.009Z,77.70
2022-12-25T05:21:55.927Z,93.50
2022-12-25T05:22:55.871Z,96.90
2022-12-25T05:23:55.833Z,84.50
2022-12-25T05:24:55.735Z,85.00
2022-12-25T05:25:55.660Z,79.40
2022-12-25T05:26:55.611Z,80.80
2022-12-25T05:27:55.533Z,90.40
2022-12-25T05:28:55.528Z,77.00
2022-12-25T05:29:55.427Z,81.90
2022-12-25T05:30:55.396Z,82.70
2022-12-25T05:31:55.351Z,74.90
2022-12-25T05:32:55.283Z,89.20
2022-12-25T05:33:55.151Z,101.80
2022-12-25T05:34:55.082Z,101.10
2022-12-25T05:35:55.037Z,86.30
2022-12-25T05:36:54.965Z,86.10
2022-12-25T05:38:15.894Z,83.50
2022-12-25T05:38:54.842Z,90.20
2022-12-25T05:39:54.781Z,81.30
2022-12-25T05:40:54.692Z,80.00
2022-12-25T05:41:55.372Z,96.60
2022-12-25T05:42:54.623Z,101.40
2022-12-25T05:43:54.533Z,92.30
2022-12-25T05:44:54.477Z,100.10
2022-12-25T05:45:54.398Z,94.00
2022-12-25T05:46:54.428Z,75.30
2022-12-25T05:47:54.299Z,93.70
2022-12-25T05:48:54.243Z,86.00
2022-12-25T05:49:54.191Z,104.80
2022-12-25T05:50:54.060Z,103.70
2022-12-25T05:51:54.044Z,96.70
2022-12-25T05:52:53.989Z,129.30
2022-12-25T05:53:53.895Z,94.20
2022-12-25T05:54:53.805Z,89.90
2022-12-25T05:55:53.781Z,97.90
2022-12-25T05:56:53.706Z,101.80
2022-12-25T05:57:53.639Z,103.00
2022-12-25T05:58:53.571Z,101.00
2022-12-25T05:59:53.530Z,101.80
2022-12-25T06:00:53.431Z,100.20
2022-12-25T06:01:53.513Z,98.60
2022-12-25T06:02:53.570Z,99.60
2022-12-25T06:03:53.346Z,95.00
2022-12-25T06:04:53.165Z,102.30
2022-12-25T06:05:53.103Z,97.30
2022-12-25T06:06:53.068Z,99.60
2022-12-25T06:07:53.021Z,104.50
2022-12-25T06:08:52.965Z,97.20
2022-12-25T06:09:52.872Z,94.70
2022-12-25T06:10:52.815Z,98.50
2022-12-25T06:11:52.750Z,99.20
2022-12-25T06:12:52.664Z,103.90
2022-12-25T06:14:13.642Z,103.40
2022-12-25T06:14:52.583Z,103.60
2022-12-25T06:15:52.520Z,100.00
2022-12-25T06:16:52.533Z,96.60
2022-12-25T06:17:52.382Z,94.70
2022-12-25T06:18:52.332Z,102.60
2022-12-25T06:19:52.222Z,106.90
2022-12-25T06:20:52.184Z,97.10
2022-12-25T06:21:52.135Z,86.60
2022-12-25T06:22:52.072Z,112.00
2022-12-25T06:23:52.193Z,112.00
2022-12-25T06:24:52.020Z,95.00
2022-12-25T06:25:51.892Z,114.00
2022-12-25T06:26:51.796Z,120.50
2022-12-25T06:27:51.753Z,118.20
2022-12-25T06:28:51.693Z,108.80
2022-12-25T06:29:51.598Z,125.90
2022-12-25T06:30:51.507Z,107.20
2022-12-25T06:31:51.552Z,137.60
2022-12-25T06:32:51.439Z,131.30
2022-12-25T06:33:51.355Z,114.30
2022-12-25T06:34:51.276Z,125.70
2022-12-25T06:35:51.187Z,122.50
2022-12-25T06:36:51.160Z,132.30
2022-12-25T06:37:51.345Z,130.30
2022-12-25T06:38:51.056Z,136.80
2022-12-25T06:39:50.959Z,127.60
2022-12-25T06:40:50.874Z,133.30
2022-12-25T06:41:50.840Z,136.80
2022-12-25T06:42:50.823Z,125.10
2022-12-25T06:43:50.760Z,131.20
2022-12-25T06:44:50.649Z,148.90
2022-12-25T06:45:50.620Z,132.90
2022-12-25T06:46:50.491Z,136.50
2022-12-25T06:47:50.489Z,152.30
2022-12-25T06:48:50.464Z,153.60
2022-12-25T06:49:50.365Z,146.50
2022-12-25T06:50:50.286Z,147.10
2022-12-25T06:51:50.173Z,146.80
2022-12-25T06:52:50.084Z,156.90
2022-12-25T06:53:50.061Z,142.90
2022-12-25T06:54:50.015Z,160.60
2022-12-25T06:57:00.357Z,153.60
2022-12-25T06:58:00.106Z,162.70
2022-12-25T06:58:59.996Z,156.00
2022-12-25T06:59:59.896Z,150.00
2022-12-25T07:00:59.914Z,152.70
2022-12-25T07:02:00.037Z,164.30
2022-12-25T07:02:59.922Z,154.20
2022-12-25T07:03:59.679Z,168.20
2022-12-25T07:04:59.627Z,149.70
2022-12-25T07:05:59.545Z,152.80
2022-12-25T07:07:04.435Z,177.70
2022-12-25T07:07:59.400Z,154.90
2022-12-25T07:08:59.324Z,183.10
2022-12-25T07:09:59.262Z,166.90
2022-12-25T07:10:59.223Z,167.40
2022-12-25T07:11:59.183Z,166.40
2022-12-25T07:12:59.149Z,168.90
2022-12-25T07:13:59.027Z,155.10
2022-12-25T07:14:59.001Z,184.10
2022-12-25T07:15:58.925Z,203.90
2022-12-25T07:16:59.010Z,177.40
2022-12-25T07:17:58.811Z,181.90
2022-12-25T07:18:58.748Z,189.80
2022-12-25T07:19:58.651Z,195.50
2022-12-25T07:20:58.581Z,168.80
2022-12-25T07:21:58.522Z,185.00
2022-12-25T07:22:58.482Z,196.60
2022-12-25T07:23:58.364Z,192.10
2022-12-25T07:26:37.255Z,190.10
2022-12-25T07:27:38.183Z,190.30
2022-12-25T07:28:38.106Z,193.90
2022-12-25T07:29:38.034Z,186.60
2022-12-25T07:30:38.024Z,213.40
2022-12-25T07:31:38.008Z,193.40
2022-12-25T07:32:37.884Z,192.60
2022-12-25T07:33:37.796Z,199.50
2022-12-25T07:34:37.726Z,208.10
2022-12-25T07:35:37.669Z,189.40
2022-12-25T07:36:37.622Z,197.80
2022-12-25T07:37:37.597Z,182.90
2022-12-25T07:38:37.475Z,202.20
2022-12-25T07:39:37.424Z,210.20
2022-12-25T07:40:37.372Z,185.50
2022-12-25T07:41:37.281Z,183.70
2022-12-25T07:42:58.202Z,210.70
2022-12-25T07:43:37.192Z,190.50
2022-12-25T07:44:37.092Z,188.70
2022-12-25T07:45:37.017Z,171.00
2022-12-25T07:46:36.937Z,188.40
2022-12-25T07:47:36.899Z,204.70
2022-12-25T07:48:36.851Z,191.60
2022-12-25T07:49:36.749Z,185.40
2022-12-25T07:50:36.748Z,187.90
2022-12-25T07:51:36.649Z,228.30
2022-12-25T07:52:42.994Z,196.90
2022-12-25T07:53:36.544Z,191.80
2022-12-25T07:54:36.452Z,194.80
2022-12-25T07:55:36.423Z,203.50
2022-12-25T07:56:36.338Z,187.00
2022-12-25T07:57:36.315Z,201.70
2022-12-25T07:58:36.185Z,189.70
2022-12-25T07:59:36.113Z,201.00
2022-12-25T08:00:57.191Z,210.30
2022-12-25T08:01:36.228Z,198.20
2022-12-25T08:02:36.255Z,208.00
2022-12-25T08:03:36.120Z,207.70
2022-12-25T08:04:35.821Z,212.60
2022-12-25T08:05:35.784Z,196.30
2022-12-25T08:06:35.728Z,213.30
2022-12-25T08:07:35.636Z,195.90
2022-12-25T08:08:35.575Z,209.90
2022-12-25T08:09:35.482Z,212.90
2022-12-25T08:10:35.437Z,207.70
2022-12-25T08:11:35.400Z,200.30
2022-12-25T08:12:35.390Z,183.50
2022-12-25T08:13:35.263Z,211.40
2022-12-25T08:14:35.188Z,202.90
2022-12-25T08:15:35.118Z,205.60
2022-12-25T08:16:35.084Z,205.80
2022-12-25T08:17:35.006Z,184.20
2022-12-25T08:18:34.975Z,193.10
2022-12-25T08:19:34.899Z,186.30
2022-12-25T08:20:34.803Z,190.80
2022-12-25T08:21:34.776Z,183.00
2022-12-25T08:22:34.661Z,171.30
2022-12-25T08:23:34.633Z,189.60
2022-12-25T08:24:34.546Z,173.70
2022-12-25T08:25:34.493Z,183.00
2022-12-25T08:26:34.422Z,165.20
2022-12-25T08:27:34.326Z,164.10
2022-12-25T08:28:34.328Z,174.50
2022-12-25T08:29:34.204Z,173.90
2022-12-25T08:30:34.250Z,184.50
2022-12-25T08:31:34.218Z,160.80
2022-12-25T08:32:34.069Z,159.00
2022-12-25T08:33:33.949Z,170.70
2022-12-25T08:34:33.915Z,143.70
2022-12-25T08:35:33.823Z,149.10
2022-12-25T08:38:12.735Z,140.40
2022-12-25T08:39:13.632Z,152.20
2022-12-25T08:40:13.610Z,150.40
2022-12-25T08:41:13.537Z,150.00
2022-12-25T08:42:13.462Z,151.30
2022-12-25T08:43:13.379Z,146.00
2022-12-25T08:44:13.337Z,136.20
2022-12-25T08:45:13.284Z,138.50
2022-12-25T08:46:13.294Z,134.50
2022-12-25T08:47:13.152Z,135.60
2022-12-25T08:48:13.110Z,130.20
2022-12-25T08:49:12.975Z,135.30
2022-12-25T08:50:13.005Z,136.00
2022-12-25T08:51:12.900Z,143.40
2022-12-25T08:52:12.778Z,137.60
2022-12-25T08:53:12.768Z,122.90
2022-12-25T08:54:33.662Z,127.60
2022-12-25T08:55:12.594Z,118.80
2022-12-25T08:56:12.537Z,112.30
2022-12-25T08:57:12.561Z,115.70
2022-12-25T08:58:12.452Z,124.60
2022-12-25T08:59:12.394Z,118.90
2022-12-25T09:00:12.311Z,114.30
2022-12-25T09:01:12.305Z,110.60
2022-12-25T09:02:12.484Z,119.80
2022-12-25T09:03:12.189Z,114.20
2022-12-25T09:04:12.069Z,108.30
2022-12-25T09:05:11.984Z,111.40
2022-12-25T09:06:11.929Z,124.60
2022-12-25T09:07:12.684Z,126.70
2022-12-25T09:08:11.813Z,115.30
2022-12-25T09:09:11.728Z,112.90
2022-12-25T09:10:11.700Z,98.90
2022-12-25T09:11:11.576Z,102.30
2022-12-25T09:12:11.556Z,103.40
2022-12-25T09:13:11.447Z,97.80
2022-12-25T09:14:11.413Z,107.80
2022-12-25T09:15:11.348Z,107.60
2022-12-25T09:16:11.352Z,100.30
2022-12-25T09:17:11.243Z,110.80
2022-12-25T09:18:11.195Z,99.00
2022-12-25T09:19:11.113Z,90.00
2022-12-25T09:20:11.043Z,91.90
2022-12-25T09:21:11.045Z,85.90
2022-12-25T09:22:10.907Z,97.40
2022-12-25T09:23:14.082Z,82.50
2022-12-25T09:24:10.795Z,75.70
2022-12-25T09:25:10.752Z,74.00
2022-12-25T09:26:10.630Z,71.40
2022-12-25T09:27:10.558Z,73.40
2022-12-25T09:28:10.541Z,60.90
2022-12-25T09:29:10.476Z,58.90
2022-12-25T09:30:31.459Z,47.40
2022-12-25T09:31:10.413Z,53.20
2022-12-25T09:32:10.296Z,57.90
2022-12-25T09:33:10.231Z,55.40
2022-12-25T09:34:12.587Z,54.90
2022-12-25T09:35:10.090Z,50.60
2022-12-25T09:36:10.046Z,46.60
2022-12-25T09:37:09.972Z,53.20
2022-12-25T09:38:09.915Z,49.10
2022-12-25T09:39:09.797Z,61.10
2022-12-25T09:40:09.755Z,59.50
2022-12-25T09:41:09.698Z,56.30
2022-12-25T09:42:09.655Z,53.30
2022-12-25T09:43:09.565Z,66.40
2022-12-25T09:44:09.478Z,60.50
2022-12-25T09:45:09.419Z,55.40
2022-12-25T09:46:09.416Z,68.80
2022-12-25T09:47:09.293Z,52.40
2022-12-25T09:49:48.473Z,67.50
2022-12-25T09:50:49.397Z,72.90
2022-12-25T09:51:49.308Z,58.60
2022-12-25T09:52:49.293Z,58.50
2022-12-25T09:53:49.232Z,58.10
2022-12-25T09:54:49.170Z,48.40
2022-12-25T09:55:49.080Z,50.40
2022-12-25T09:56:49.051Z,55.10
2022-12-25T09:57:49.023Z,53.80
2022-12-25T09:58:48.865Z,42.70
2022-12-25T09:59:48.829Z,52.60
2022-12-25T10:00:48.840Z,65.50
2022-12-25T10:01:48.821Z,49.40
2022-12-25T10:02:48.880Z,53.50
2022-12-25T10:03:48.722Z,51.50
2022-12-25T10:04:48.497Z,49.80
2022-12-25T10:05:48.443Z,45.00
2022-12-25T10:06:48.416Z,53.80
2022-12-25T10:07:48.291Z,46.60
2022-12-25T10:08:48.232Z,47.30
2022-12-25T10:09:48.229Z,45.20
2022-12-25T10:10:48.157Z,47.70
2022-12-25T10:11:48.074Z,35.00
2022-12-25T10:12:48.030Z,38.10
2022-12-25T10:13:47.911Z,44.90
2022-12-25T10:14:47.897Z,36.10
2022-12-25T10:15:47.889Z,39.60
2022-12-25T10:16:47.739Z,63.30
2022-12-25T10:17:47.713Z,45.90
2022-12-25T10:18:47.621Z,33.90
2022-12-25T10:19:47.555Z,42.30
2022-12-25T10:20:47.471Z,33.80
2022-12-25T10:21:47.456Z,45.60
2022-12-25T10:22:47.357Z,33.30
2022-12-25T10:23:47.322Z,33.10
2022-12-25T10:26:27.208Z,23.10
2022-12-25T10:27:28.065Z,32.00
2022-12-25T10:28:28.022Z,31.40
2022-12-25T10:29:27.965Z,48.80
2022-12-25T10:30:27.877Z,31.80
2022-12-25T10:31:27.969Z,47.50
2022-12-25T10:32:27.774Z,35.40
2022-12-25T10:33:27.684Z,24.90
2022-12-25T10:34:27.692Z,38.40
2022-12-25T10:35:27.565Z,40.20
2022-12-25T10:36:27.515Z,33.20
2022-12-25T10:37:27.470Z,51.30
2022-12-25T10:38:27.451Z,31.40
2022-12-25T10:39:27.327Z,49.30
2022-12-25T10:40:27.291Z,34.60
2022-12-25T10:41:27.191Z,35.30
2022-12-25T10:42:27.131Z,57.90
2022-12-25T10:43:48.088Z,49.70
2022-12-25T10:44:27.015Z,67.40
2022-12-25T10:45:26.946Z,64.60
2022-12-25T10:46:26.928Z,61.30
2022-12-25T10:47:26.823Z,63.20
2022-12-25T10:48:26.777Z,65.50
2022-12-25T10:49:26.702Z,69.20
2022-12-25T10:50:26.679Z,64.10
2022-12-25T10:51:26.558Z,80.40
2022-12-25T10:52:26.492Z,91.00
2022-12-25T10:53:26.473Z,66.70
2022-12-25T10:54:26.404Z,78.80
2022-12-25T10:55:29.088Z,75.40
2022-12-25T10:56:27.150Z,77.20
2022-12-25T10:57:26.196Z,79.50
2022-12-25T10:58:26.133Z,71.30
2022-12-25T10:59:26.041Z,69.30
2022-12-25T11:00:25.957Z,71.30
2022-12-25T11:01:26.019Z,79.70
2022-12-25T11:02:26.148Z,87.40
2022-12-25T11:03:25.971Z,76.20
2022-12-25T11:04:25.760Z,83.90
2022-12-25T11:05:25.665Z,72.20
2022-12-25T11:06:25.667Z,79.20
2022-12-25T11:07:25.559Z,96.90
2022-12-25T11:08:25.481Z,81.90
2022-12-25T11:09:25.436Z,88.80
2022-12-25T11:10:25.359Z,93.60
2022-12-25T11:11:25.315Z,90.20
2022-12-25T11:12:25.218Z,101.00
2022-12-25T11:13:25.183Z,92.50
2022-12-25T11:14:25.062Z,100.50
2022-12-25T11:15:25.039Z,94.90
2022-12-25T11:16:25.138Z,92.30
2022-12-25T11:17:24.924Z,92.90
2022-12-25T11:18:24.821Z,105.10
2022-12-25T11:19:45.785Z,91.40
2022-12-25T11:20:24.738Z,89.30
2022-12-25T11:21:24.652Z,95.60
2022-12-25T11:22:24.603Z,98.90
2022-12-25T11:23:24.501Z,105.40
2022-12-25T11:24:24.447Z,83.30
2022-12-25T11:25:24.425Z,89.30
2022-12-25T11:26:24.374Z,94.10
2022-12-25T11:27:24.280Z,102.60
2022-12-25T11:28:24.199Z,98.00
2022-12-25T11:29:24.143Z,91.60
2022-12-25T11:30:24.070Z,91.40
2022-12-25T11:31:24.244Z,85.70
2022-12-25T11:32:23.951Z,97.10
2022-12-25T11:33:23.869Z,107.60
2022-12-25T11:34:23.809Z,100.40
2022-12-25T11:35:23.794Z,89.70
2022-12-25T11:36:23.684Z,82.10
2022-12-25T11:37:23.613Z,79.30
2022-12-25T11:38:23.525Z,65.10
2022-12-25T11:39:23.497Z,69.50
2022-12-25T11:40:23.425Z,56.30
2022-12-25T11:41:23.335Z,62.30
2022-12-25T11:42:23.316Z,60.20
2022-12-25T11:43:23.224Z,64.50
2022-12-25T11:44:23.147Z,60.30
2022-12-25T11:45:23.116Z,55.40
2022-12-25T11:46:23.086Z,57.90
2022-12-25T11:47:22.961Z,64.10
2022-12-25T11:48:22.942Z,55.70
2022-12-25T11:49:22.874Z,49.00
2022-12-25T11:50:22.813Z,52.40
2022-12-25T11:51:22.721Z,68.20
2022-12-25T11:52:22.664Z,58.60
2022-12-25T11:53:22.577Z,41.60
2022-12-25T11:54:22.506Z,58.70
2022-12-25T11:56:32.651Z,82.30
2022-12-25T11:57:33.556Z,76.50
2022-12-25T11:58:33.520Z,73.90
2022-12-25T11:59:33.478Z,74.50
2022-12-25T12:00:33.378Z,89.10
2022-12-25T12:01:33.452Z,86.60
2022-12-25T12:02:33.518Z,84.30
2022-12-25T12:03:33.276Z,105.40
2022-12-25T12:04:40.299Z,83.30
2022-12-25T12:05:33.042Z,101.40
2022-12-25T12:06:33.025Z,103.00
2022-12-25T12:07:53.912Z,110.00
2022-12-25T12:08:32.913Z,103.20
2022-12-25T12:09:32.783Z,102.60
2022-12-25T12:10:32.763Z,105.90
2022-12-25T12:11:32.708Z,102.30
2022-12-25T12:12:32.644Z,107.10
2022-12-25T12:15:11.428Z,104.30
2022-12-25T12:16:12.395Z,102.00
2022-12-25T12:17:12.337Z,112.80
2022-12-25T12:18:12.279Z,117.20
2022-12-25T12:19:12.265Z,106.30
2022-12-25T12:20:12.188Z,111.70
2022-12-25T12:21:12.062Z,117.40
2022-12-25T12:22:11.991Z,110.80
2022-12-25T12:23:11.954Z,109.60
2022-12-25T12:24:11.860Z,111.90
2022-12-25T12:25:11.816Z,133.20
2022-12-25T12:26:11.737Z,132.70
2022-12-25T12:27:11.669Z,137.30
2022-12-25T12:28:11.607Z,136.10
2022-12-25T12:29:11.568Z,134.60
2022-12-25T12:30:11.546Z,139.10
2022-12-25T12:32:21.807Z,128.30
2022-12-25T12:33:21.577Z,138.00
2022-12-25T12:34:21.475Z,142.30
2022-12-25T12:35:21.375Z,137.20
2022-12-25T12:36:29.058Z,140.20
2022-12-25T12:37:24.844Z,133.40
2022-12-25T12:38:21.216Z,140.20
2022-12-25T12:39:21.103Z,156.20
2022-12-25T12:40:21.129Z,150.50
2022-12-25T12:41:21.008Z,143.20
2022-12-25T12:42:20.952Z,130.90
2022-12-25T12:43:20.876Z,142.70
2022-12-25T12:44:20.828Z,130.10
2022-12-25T12:45:20.784Z,141.80
2022-12-25T12:46:26.187Z,117.20
2022-12-25T12:47:20.633Z,137.60
2022-12-25T12:48:20.584Z,150.10
2022-12-25T12:49:20.558Z,138.80
2022-12-25T12:50:20.471Z,138.90
2022-12-25T12:51:20.394Z,131.90
2022-12-25T12:52:20.317Z,123.20
2022-12-25T12:53:20.227Z,130.60
2022-12-25T12:54:20.158Z,141.70
2022-12-25T12:55:20.117Z,123.40
2022-12-25T12:56:20.060Z,128.90
2022-12-25T12:57:20.045Z,138.80
2022-12-25T12:58:19.900Z,129.70